»·PEaware :: N5002T KBUR-KOXR

N5002T :: KBUR-KOXR

FLIGHT INFORMATION

Flight Status: Arrived
Operator: Privately registered:
United States
More flights under this callsign
Pilot: Hunter M. (19355)
Aircraft: CESSNA 172 SKYHAWK
(C172)
More flights by this aircraft type
Origin: KBUR Bob Hope-Burbank
United States
Destination: KOXR Oxnard
United States
More flights between these airports :: More routes between these airports
Route: +FIM
File this flight plan on PilotEdge
Remarks:
Altitude:
(Current/Filed)
4,000ft
Speed:
(Current/Filed)
118kts
Departed: 13-Jan-19 04:40 PM
Arrived: 13-Jan-19 05:18 PM
Distance/Time
Traveled:
42nm/0:38
Distance/Time
To Go:
Arrived

Flight Plot

Page will automatically refresh every two minutes.


Map Options




Map Legend


Flown Route
Filed Route
Departure Airport
Arrival Airport
Navaid (VOR, NDB)
Fix

Horizontal Profiles

Position Reports

Time Latitude Longitude Heading Altitude Ground
Speed
13-Jan-19 16:12 34.195958 -118.366900 181 781ft 0kts
13-Jan-19 16:13 34.195957 -118.366900 181 781ft 0kts
13-Jan-19 16:14 34.195956 -118.366900 181 781ft 0kts
13-Jan-19 16:15 34.195955 -118.366900 181 781ft 0kts
13-Jan-19 16:16 34.195954 -118.366900 181 781ft 0kts
13-Jan-19 16:17 34.195953 -118.366901 181 781ft 0kts
13-Jan-19 16:18 34.195952 -118.366901 181 781ft 0kts
13-Jan-19 16:19 34.195951 -118.366901 181 781ft 0kts
13-Jan-19 16:20 34.195950 -118.366901 181 781ft 0kts
13-Jan-19 16:21 34.195950 -118.366901 181 781ft 0kts
13-Jan-19 16:22 34.195949 -118.366901 181 781ft 0kts
13-Jan-19 16:23 34.195948 -118.366901 181 781ft 0kts
13-Jan-19 16:24 34.195947 -118.366901 181 781ft 0kts
13-Jan-19 16:25 34.195946 -118.366901 181 781ft 0kts
13-Jan-19 16:26 34.195945 -118.366901 181 781ft 0kts
13-Jan-19 16:27 34.195944 -118.366901 181 781ft 0kts
13-Jan-19 16:28 34.195943 -118.366901 181 781ft 0kts
13-Jan-19 16:29 34.195942 -118.366901 181 781ft 0kts
13-Jan-19 16:30 34.195941 -118.366901 181 781ft 0kts
13-Jan-19 16:31 34.195940 -118.366901 181 781ft 0kts
13-Jan-19 16:32 34.195939 -118.366901 181 781ft 0kts
13-Jan-19 16:33 34.195924 -118.366900 173 781ft 2kts
13-Jan-19 16:34 34.196412 -118.366187 6 781ft 4kts
13-Jan-19 16:35 34.196738 -118.367287 271 781ft 3kts
13-Jan-19 16:36 34.196913 -118.368932 335 781ft 0kts
13-Jan-19 16:37 34.196918 -118.368935 335 781ft 0kts
13-Jan-19 16:38 34.197925 -118.367627 94 781ft 32kts
13-Jan-19 16:39 34.195663 -118.342442 128 1244ft 87kts
13-Jan-19 16:40 34.180356 -118.320535 129 1984ft 87kts
13-Jan-19 16:41 34.165062 -118.297524 127 2689ft 92kts
13-Jan-19 16:42 34.146633 -118.276031 198 3347ft 90kts
13-Jan-19 16:43 34.144192 -118.301349 272 4078ft 79kts
13-Jan-19 16:44 34.145270 -118.328010 272 4756ft 78kts
13-Jan-19 16:45 34.146457 -118.360298 277 5697ft 113kts
13-Jan-19 16:46 34.148229 -118.393441 290 6009ft 95kts
13-Jan-19 16:47 34.155271 -118.426562 287 6003ft 105kts
13-Jan-19 16:48 34.161563 -118.458072 287 5987ft 87kts
13-Jan-19 16:49 34.164373 -118.486766 277 6001ft 86kts
13-Jan-19 16:50 34.166662 -118.515915 279 5904ft 94kts
13-Jan-19 16:51 34.169720 -118.550245 278 5245ft 103kts
13-Jan-19 16:52 34.172746 -118.584892 278 4547ft 103kts
13-Jan-19 16:53 34.175737 -118.619178 278 4004ft 97kts
13-Jan-19 16:54 34.178334 -118.649363 278 4016ft 88kts
13-Jan-19 16:55 34.180817 -118.678280 278 4161ft 79kts
13-Jan-19 16:56 34.183239 -118.706120 278 4221ft 88kts
13-Jan-19 16:57 34.185832 -118.735950 278 4215ft 89kts
13-Jan-19 16:58 34.188396 -118.765713 278 4212ft 88kts
13-Jan-19 16:59 34.190949 -118.795457 278 4214ft 89kts
13-Jan-19 17:00 34.193491 -118.825133 278 4209ft 88kts
13-Jan-19 17:01 34.196019 -118.854656 279 4210ft 88kts
13-Jan-19 17:02 34.199295 -118.884220 280 4193ft 89kts
13-Jan-19 17:03 34.198433 -118.916835 268 3701ft 95kts
13-Jan-19 17:04 34.197717 -118.945662 274 3704ft 81kts
13-Jan-19 17:05 34.200144 -118.974284 278 3480ft 93kts
13-Jan-19 17:06 34.199743 -119.004245 266 2716ft 90kts
13-Jan-19 17:07 34.198149 -119.032174 278 1861ft 86kts
13-Jan-19 17:08 34.198375 -119.060013 255 1226ft 80kts
13-Jan-19 17:09 34.193549 -119.086119 251 1316ft 78kts
13-Jan-19 17:10 34.188358 -119.112527 257 1409ft 83kts
13-Jan-19 17:11 34.185441 -119.140538 260 1405ft 84kts
13-Jan-19 17:12 34.181689 -119.169140 257 1279ft 89kts
13-Jan-19 17:13 34.177812 -119.198792 258 1165ft 87kts
13-Jan-19 17:14 34.176326 -119.227411 263 1086ft 90kts
13-Jan-19 17:15 34.189061 -119.245014 353 1160ft 87kts
13-Jan-19 17:16 34.201022 -119.230514 89 433ft 58kts
13-Jan-19 17:17 34.200871 -119.214257 91 46ft 13kts
13-Jan-19 17:18 34.200262 -119.211967 236 46ft 0kts
13-Jan-19 17:19 34.200262 -119.211968 236 46ft 0kts
13-Jan-19 17:20 34.198849 -119.213791 178 46ft 5kts
13-Jan-19 17:21 34.198831 -119.213790 178 46ft 0kts

Navigation Log

Ident Type
Flight plan parsing failed, navigation log unavailable